sensor_id;sensor_type;location;lat;lon;timestamp;P1;durP1;ratioP1;P2;durP2;ratioP2
18627;SDS011;9443;50.888;10.728;2022-10-18T00:07:21;8.47;;;3.27;;
18627;SDS011;9443;50.888;10.728;2022-10-18T00:17:21;4.57;;;2.90;;
18627;SDS011;9443;50.888;10.728;2022-10-18T00:27:21;5.18;;;3.78;;
18627;SDS011;9443;50.888;10.728;2022-10-18T00:37:22;9.50;;;3.30;;
18627;SDS011;9443;50.888;10.728;2022-10-18T00:47:22;4.53;;;2.63;;
18627;SDS011;9443;50.888;10.728;2022-10-18T00:57:23;5.75;;;3.30;;
18627;SDS011;9443;50.888;10.728;2022-10-18T01:07:33;4.70;;;3.40;;
18627;SDS011;9443;50.888;10.728;2022-10-18T01:27:46;6.57;;;4.40;;
18627;SDS011;9443;50.888;10.728;2022-10-18T01:37:50;6.32;;;3.85;;
18627;SDS011;9443;50.888;10.728;2022-10-18T01:47:51;6.53;;;3.67;;
18627;SDS011;9443;50.888;10.728;2022-10-18T01:58:17;6.25;;;3.72;;
18627;SDS011;9443;50.888;10.728;2022-10-18T02:08:24;4.78;;;3.40;;
18627;SDS011;9443;50.888;10.728;2022-10-18T02:18:33;8.60;;;3.47;;
18627;SDS011;9443;50.888;10.728;2022-10-18T02:28:36;6.80;;;3.40;;
18627;SDS011;9443;50.888;10.728;2022-10-18T02:38:36;5.07;;;3.42;;
18627;SDS011;9443;50.888;10.728;2022-10-18T02:48:38;9.30;;;3.88;;
18627;SDS011;9443;50.888;10.728;2022-10-18T02:58:38;6.00;;;4.35;;
18627;SDS011;9443;50.888;10.728;2022-10-18T03:08:38;11.98;;;6.13;;
18627;SDS011;9443;50.888;10.728;2022-10-18T03:18:39;13.32;;;5.95;;
18627;SDS011;9443;50.888;10.728;2022-10-18T03:28:39;11.98;;;6.05;;
18627;SDS011;9443;50.888;10.728;2022-10-18T03:38:39;15.57;;;7.83;;
18627;SDS011;9443;50.888;10.728;2022-10-18T03:48:39;16.02;;;8.40;;
18627;SDS011;9443;50.888;10.728;2022-10-18T03:58:40;15.93;;;7.20;;
18627;SDS011;9443;50.888;10.728;2022-10-18T04:08:40;16.33;;;7.87;;
18627;SDS011;9443;50.888;10.728;2022-10-18T04:18:40;19.20;;;9.33;;
18627;SDS011;9443;50.888;10.728;2022-10-18T04:28:41;13.63;;;7.20;;
18627;SDS011;9443;50.888;10.728;2022-10-18T04:38:42;14.33;;;9.17;;
18627;SDS011;9443;50.888;10.728;2022-10-18T04:48:42;16.23;;;10.20;;
18627;SDS011;9443;50.888;10.728;2022-10-18T04:58:42;18.77;;;9.93;;
18627;SDS011;9443;50.888;10.728;2022-10-18T05:08:43;19.60;;;10.53;;
18627;SDS011;9443;50.888;10.728;2022-10-18T05:18:43;10.93;;;6.53;;
18627;SDS011;9443;50.888;10.728;2022-10-18T05:28:43;1.30;;;0.67;;
18627;SDS011;9443;50.888;10.728;2022-10-18T05:38:43;0.30;;;0.30;;
18627;SDS011;9443;50.888;10.728;2022-10-18T05:48:48;0.50;;;0.43;;
18627;SDS011;9443;50.888;10.728;2022-10-18T05:59:05;0.10;;;0.10;;
18627;SDS011;9443;50.888;10.728;2022-10-18T06:09:10;0.10;;;0.10;;
18627;SDS011;9443;50.888;10.728;2022-10-18T06:19:11;0.10;;;0.10;;
18627;SDS011;9443;50.888;10.728;2022-10-18T06:29:11;0.10;;;0.10;;
18627;SDS011;9443;50.888;10.728;2022-10-18T07:01:09;0.10;;;0.10;;
18627;SDS011;9443;50.888;10.728;2022-10-18T07:11:17;0.10;;;0.10;;
18627;SDS011;9443;50.888;10.728;2022-10-18T07:21:23;0.20;;;0.20;;
18627;SDS011;9443;50.888;10.728;2022-10-18T07:31:24;0.27;;;0.27;;
18627;SDS011;9443;50.888;10.728;2022-10-18T07:41:25;0.20;;;0.20;;
18627;SDS011;9443;50.888;10.728;2022-10-18T07:51:25;2.10;;;0.63;;
18627;SDS011;9443;50.888;10.728;2022-10-18T08:01:26;0.10;;;0.10;;
18627;SDS011;9443;50.888;10.728;2022-10-18T08:11:27;0.10;;;0.10;;
18627;SDS011;9443;50.888;10.728;2022-10-18T08:21:27;0.10;;;0.10;;
18627;SDS011;9443;50.888;10.728;2022-10-18T08:31:27;0.30;;;0.30;;
18627;SDS011;9443;50.888;10.728;2022-10-18T08:41:43;0.10;;;0.10;;
18627;SDS011;9443;50.888;10.728;2022-10-18T08:51:48;0.10;;;0.10;;
18627;SDS011;9443;50.888;10.728;2022-10-18T09:02:03;0.10;;;0.10;;
18627;SDS011;9443;50.888;10.728;2022-10-18T09:22:55;0.13;;;0.13;;
18627;SDS011;9443;50.888;10.728;2022-10-18T09:33:06;0.10;;;0.10;;
18627;SDS011;9443;50.888;10.728;2022-10-18T09:43:35;0.10;;;0.10;;
18627;SDS011;9443;50.888;10.728;2022-10-18T10:03:56;0.10;;;0.10;;
18627;SDS011;9443;50.888;10.728;2022-10-18T10:14:18;0.10;;;0.10;;
18627;SDS011;9443;50.888;10.728;2022-10-18T10:24:23;0.10;;;0.10;;
18627;SDS011;9443;50.888;10.728;2022-10-18T10:34:25;0.17;;;0.17;;
18627;SDS011;9443;50.888;10.728;2022-10-18T10:44:29;0.20;;;0.20;;
18627;SDS011;9443;50.888;10.728;2022-10-18T10:54:31;0.20;;;0.20;;
18627;SDS011;9443;50.888;10.728;2022-10-18T11:04:35;0.13;;;0.13;;
18627;SDS011;9443;50.888;10.728;2022-10-18T11:14:38;0.13;;;0.13;;
18627;SDS011;9443;50.888;10.728;2022-10-18T11:24:41;0.10;;;0.10;;
18627;SDS011;9443;50.888;10.728;2022-10-18T11:45:00;0.10;;;0.10;;
18627;SDS011;9443;50.888;10.728;2022-10-18T12:05:48;0.10;;;0.10;;
18627;SDS011;9443;50.888;10.728;2022-10-18T12:15:49;0.10;;;0.10;;
18627;SDS011;9443;50.888;10.728;2022-10-18T12:25:51;0.10;;;0.10;;
18627;SDS011;9443;50.888;10.728;2022-10-18T12:46:12;0.10;;;0.10;;
18627;SDS011;9443;50.888;10.728;2022-10-18T13:16:59;0.10;;;0.10;;
18627;SDS011;9443;50.888;10.728;2022-10-18T13:27:15;0.17;;;0.17;;
18627;SDS011;9443;50.888;10.728;2022-10-18T13:37:20;0.10;;;0.10;;
18627;SDS011;9443;50.888;10.728;2022-10-18T13:47:34;0.30;;;0.30;;
18627;SDS011;9443;50.888;10.728;2022-10-18T13:57:51;0.10;;;0.10;;
18627;SDS011;9443;50.888;10.728;2022-10-18T14:08:24;0.20;;;0.20;;
18627;SDS011;9443;50.888;10.728;2022-10-18T14:18:32;0.10;;;0.10;;
18627;SDS011;9443;50.888;10.728;2022-10-18T14:28:34;0.10;;;0.10;;
18627;SDS011;9443;50.888;10.728;2022-10-18T14:38:35;0.20;;;0.20;;
18627;SDS011;9443;50.888;10.728;2022-10-18T14:48:37;0.20;;;0.20;;
18627;SDS011;9443;50.888;10.728;2022-10-18T14:58:37;0.10;;;0.10;;
18627;SDS011;9443;50.888;10.728;2022-10-18T15:08:40;0.10;;;0.10;;
18627;SDS011;9443;50.888;10.728;2022-10-18T15:18:42;0.13;;;0.13;;
18627;SDS011;9443;50.888;10.728;2022-10-18T15:28:43;0.10;;;0.10;;
18627;SDS011;9443;50.888;10.728;2022-10-18T15:39:05;0.20;;;0.20;;
18627;SDS011;9443;50.888;10.728;2022-10-18T15:59:48;0.10;;;0.10;;
18627;SDS011;9443;50.888;10.728;2022-10-18T16:09:56;0.20;;;0.20;;
18627;SDS011;9443;50.888;10.728;2022-10-18T16:19:56;0.20;;;0.20;;
18627;SDS011;9443;50.888;10.728;2022-10-18T16:29:56;0.20;;;0.20;;
18627;SDS011;9443;50.888;10.728;2022-10-18T16:39:57;0.10;;;0.10;;
18627;SDS011;9443;50.888;10.728;2022-10-18T16:49:57;0.20;;;0.20;;
18627;SDS011;9443;50.888;10.728;2022-10-18T16:59:58;0.13;;;0.13;;
18627;SDS011;9443;50.888;10.728;2022-10-18T17:09:58;0.10;;;0.10;;
18627;SDS011;9443;50.888;10.728;2022-10-18T17:19:59;0.10;;;0.10;;
18627;SDS011;9443;50.888;10.728;2022-10-18T17:29:59;0.10;;;0.10;;
18627;SDS011;9443;50.888;10.728;2022-10-18T17:39:59;0.10;;;0.10;;
18627;SDS011;9443;50.888;10.728;2022-10-18T17:50:00;0.10;;;0.10;;
18627;SDS011;9443;50.888;10.728;2022-10-18T18:00:00;0.10;;;0.10;;
18627;SDS011;9443;50.888;10.728;2022-10-18T18:10:02;0.20;;;0.20;;
18627;SDS011;9443;50.888;10.728;2022-10-18T18:20:02;0.10;;;0.10;;
18627;SDS011;9443;50.888;10.728;2022-10-18T18:30:04;0.20;;;0.20;;
18627;SDS011;9443;50.888;10.728;2022-10-18T18:40:05;0.20;;;0.20;;
18627;SDS011;9443;50.888;10.728;2022-10-18T18:50:06;0.10;;;0.10;;
18627;SDS011;9443;50.888;10.728;2022-10-18T19:00:07;0.10;;;0.10;;
18627;SDS011;9443;50.888;10.728;2022-10-18T19:10:09;0.10;;;0.10;;
18627;SDS011;9443;50.888;10.728;2022-10-18T19:20:10;0.20;;;0.20;;
18627;SDS011;9443;50.888;10.728;2022-10-18T19:30:14;0.13;;;0.13;;
18627;SDS011;9443;50.888;10.728;2022-10-18T19:40:14;0.13;;;0.13;;
18627;SDS011;9443;50.888;10.728;2022-10-18T19:50:14;0.10;;;0.10;;
18627;SDS011;9443;50.888;10.728;2022-10-18T20:00:15;0.17;;;0.17;;
18627;SDS011;9443;50.888;10.728;2022-10-18T20:10:15;0.20;;;0.20;;
18627;SDS011;9443;50.888;10.728;2022-10-18T20:20:15;0.20;;;0.20;;
18627;SDS011;9443;50.888;10.728;2022-10-18T20:30:15;0.20;;;0.20;;
18627;SDS011;9443;50.888;10.728;2022-10-18T20:40:16;0.10;;;0.10;;
18627;SDS011;9443;50.888;10.728;2022-10-18T20:50:16;0.20;;;0.20;;
18627;SDS011;9443;50.888;10.728;2022-10-18T21:00:16;0.20;;;0.20;;
18627;SDS011;9443;50.888;10.728;2022-10-18T21:10:17;0.20;;;0.20;;
18627;SDS011;9443;50.888;10.728;2022-10-18T21:20:17;0.20;;;0.20;;
18627;SDS011;9443;50.888;10.728;2022-10-18T21:30:17;0.20;;;0.20;;
18627;SDS011;9443;50.888;10.728;2022-10-18T21:40:18;0.20;;;0.20;;
18627;SDS011;9443;50.888;10.728;2022-10-18T21:50:18;0.40;;;0.40;;
18627;SDS011;9443;50.888;10.728;2022-10-18T22:00:18;0.10;;;0.10;;
18627;SDS011;9443;50.888;10.728;2022-10-18T22:10:19;0.10;;;0.10;;
18627;SDS011;9443;50.888;10.728;2022-10-18T22:20:19;0.20;;;0.20;;
18627;SDS011;9443;50.888;10.728;2022-10-18T22:30:20;0.30;;;0.30;;
18627;SDS011;9443;50.888;10.728;2022-10-18T22:40:20;0.20;;;0.20;;
18627;SDS011;9443;50.888;10.728;2022-10-18T22:50:20;0.20;;;0.20;;
18627;SDS011;9443;50.888;10.728;2022-10-18T23:00:21;0.20;;;0.20;;
18627;SDS011;9443;50.888;10.728;2022-10-18T23:10:21;0.10;;;0.10;;
18627;SDS011;9443;50.888;10.728;2022-10-18T23:20:21;0.10;;;0.10;;
18627;SDS011;9443;50.888;10.728;2022-10-18T23:30:21;0.10;;;0.10;;
18627;SDS011;9443;50.888;10.728;2022-10-18T23:40:22;0.10;;;0.10;;
18627;SDS011;9443;50.888;10.728;2022-10-18T23:50:22;0.20;;;0.20;;
